sensor_id;sensor_type;location;lat;lon;timestamp;P1;durP1;ratioP1;P2;durP2;ratioP2
25917;SDS011;13899;51.174;4.456;2023-03-23T00:01:16;12.23;;;11.35;;
25917;SDS011;13899;51.174;4.456;2023-03-23T00:03:47;11.70;;;11.10;;
25917;SDS011;13899;51.174;4.456;2023-03-23T00:06:15;12.30;;;11.60;;
25917;SDS011;13899;51.174;4.456;2023-03-23T00:08:47;12.15;;;11.48;;
25917;SDS011;13899;51.174;4.456;2023-03-23T00:11:16;12.20;;;11.50;;
25917;SDS011;13899;51.174;4.456;2023-03-23T00:13:47;12.88;;;12.27;;
25917;SDS011;13899;51.174;4.456;2023-03-23T00:16:18;13.20;;;12.48;;
25917;SDS011;13899;51.174;4.456;2023-03-23T00:18:45;12.95;;;12.20;;
25917;SDS011;13899;51.174;4.456;2023-03-23T00:23:37;12.73;;;12.13;;
25917;SDS011;13899;51.174;4.456;2023-03-23T00:26:04;13.30;;;12.55;;
25917;SDS011;13899;51.174;4.456;2023-03-23T00:28:30;11.93;;;11.32;;
25917;SDS011;13899;51.174;4.456;2023-03-23T00:31:00;14.07;;;13.30;;
25917;SDS011;13899;51.174;4.456;2023-03-23T00:33:28;13.30;;;12.63;;
25917;SDS011;13899;51.174;4.456;2023-03-23T00:35:58;13.52;;;12.82;;
25917;SDS011;13899;51.174;4.456;2023-03-23T00:38:24;12.97;;;12.20;;
25917;SDS011;13899;51.174;4.456;2023-03-23T00:40:50;13.55;;;12.73;;
25917;SDS011;13899;51.174;4.456;2023-03-23T00:43:17;13.35;;;12.65;;
25917;SDS011;13899;51.174;4.456;2023-03-23T00:45:44;14.90;;;14.02;;
25917;SDS011;13899;51.174;4.456;2023-03-23T00:48:14;14.50;;;13.80;;
25917;SDS011;13899;51.174;4.456;2023-03-23T00:50:40;14.00;;;13.20;;
25917;SDS011;13899;51.174;4.456;2023-03-23T00:53:05;12.93;;;12.03;;
25917;SDS011;13899;51.174;4.456;2023-03-23T00:55:33;14.30;;;13.57;;
25917;SDS011;13899;51.174;4.456;2023-03-23T01:00:24;13.40;;;12.80;;
25917;SDS011;13899;51.174;4.456;2023-03-23T01:02:52;14.40;;;13.70;;
25917;SDS011;13899;51.174;4.456;2023-03-23T01:05:18;13.82;;;13.02;;
25917;SDS011;13899;51.174;4.456;2023-03-23T01:07:44;13.65;;;12.95;;
25917;SDS011;13899;51.174;4.456;2023-03-23T01:10:11;13.85;;;12.98;;
25917;SDS011;13899;51.174;4.456;2023-03-23T01:12:40;13.52;;;12.85;;
25917;SDS011;13899;51.174;4.456;2023-03-23T01:15:08;13.13;;;12.43;;
25917;SDS011;13899;51.174;4.456;2023-03-23T01:17:34;13.60;;;12.75;;
25917;SDS011;13899;51.174;4.456;2023-03-23T01:20:00;12.98;;;12.30;;
25917;SDS011;13899;51.174;4.456;2023-03-23T01:22:26;16.10;;;15.30;;
25917;SDS011;13899;51.174;4.456;2023-03-23T01:24:51;16.07;;;15.17;;
25917;SDS011;13899;51.174;4.456;2023-03-23T01:27:17;14.27;;;13.38;;
25917;SDS011;13899;51.174;4.456;2023-03-23T01:29:42;14.05;;;13.25;;
25917;SDS011;13899;51.174;4.456;2023-03-23T01:32:08;45.00;;;43.17;;
25917;SDS011;13899;51.174;4.456;2023-03-23T01:34:34;3.90;;;3.53;;
25917;SDS011;13899;51.174;4.456;2023-03-23T01:37:00;4.18;;;3.88;;
25917;SDS011;13899;51.174;4.456;2023-03-23T01:39:25;6.53;;;4.77;;
25917;SDS011;13899;51.174;4.456;2023-03-23T01:41:51;4.18;;;3.47;;
25917;SDS011;13899;51.174;4.456;2023-03-23T01:46:42;3.85;;;2.53;;
25917;SDS011;13899;51.174;4.456;2023-03-23T01:49:17;5.53;;;2.92;;
25917;SDS011;13899;51.174;4.456;2023-03-23T01:51:48;4.22;;;3.40;;
25917;SDS011;13899;51.174;4.456;2023-03-23T01:54:18;5.07;;;3.00;;
25917;SDS011;13899;51.174;4.456;2023-03-23T01:56:56;2.88;;;2.53;;
25917;SDS011;13899;51.174;4.456;2023-03-23T01:59:28;4.15;;;2.92;;
25917;SDS011;13899;51.174;4.456;2023-03-23T02:01:55;4.18;;;3.78;;
25917;SDS011;13899;51.174;4.456;2023-03-23T02:04:21;8.23;;;7.73;;
25917;SDS011;13899;51.174;4.456;2023-03-23T02:06:50;8.15;;;7.53;;
25917;SDS011;13899;51.174;4.456;2023-03-23T02:09:17;7.50;;;7.00;;
25917;SDS011;13899;51.174;4.456;2023-03-23T02:11:43;8.80;;;8.17;;
25917;SDS011;13899;51.174;4.456;2023-03-23T02:16:47;9.00;;;8.50;;
25917;SDS011;13899;51.174;4.456;2023-03-23T02:28:20;3.70;;;3.40;;
25917;SDS011;13899;51.174;4.456;2023-03-23T02:33:48;2.77;;;2.47;;
25917;SDS011;13899;51.174;4.456;2023-03-23T02:36:50;2.97;;;2.47;;
25917;SDS011;13899;51.174;4.456;2023-03-23T02:39:22;3.22;;;2.58;;
25917;SDS011;13899;51.174;4.456;2023-03-23T02:42:13;5.78;;;2.53;;
25917;SDS011;13899;51.174;4.456;2023-03-23T02:44:42;4.78;;;2.20;;
25917;SDS011;13899;51.174;4.456;2023-03-23T02:47:18;3.47;;;1.83;;
25917;SDS011;13899;51.174;4.456;2023-03-23T02:49:48;3.65;;;2.65;;
25917;SDS011;13899;51.174;4.456;2023-03-23T02:52:21;4.85;;;1.85;;
25917;SDS011;13899;51.174;4.456;2023-03-23T02:54:49;3.22;;;1.80;;
25917;SDS011;13899;51.174;4.456;2023-03-23T02:57:17;3.05;;;1.83;;
25917;SDS011;13899;51.174;4.456;2023-03-23T02:59:43;5.40;;;1.65;;
25917;SDS011;13899;51.174;4.456;2023-03-23T03:02:32;2.70;;;1.65;;
25917;SDS011;13899;51.174;4.456;2023-03-23T03:05:07;2.65;;;1.67;;
25917;SDS011;13899;51.174;4.456;2023-03-23T03:07:45;4.15;;;1.48;;
25917;SDS011;13899;51.174;4.456;2023-03-23T03:19:05;5.15;;;1.63;;
25917;SDS011;13899;51.174;4.456;2023-03-23T03:21:42;5.47;;;2.20;;
25917;SDS011;13899;51.174;4.456;2023-03-23T03:24:12;3.22;;;2.00;;
25917;SDS011;13899;51.174;4.456;2023-03-23T03:26:42;4.80;;;2.83;;
25917;SDS011;13899;51.174;4.456;2023-03-23T03:29:12;5.80;;;4.20;;
25917;SDS011;13899;51.174;4.456;2023-03-23T03:31:42;4.57;;;4.15;;
25917;SDS011;13899;51.174;4.456;2023-03-23T03:34:11;4.80;;;3.70;;
25917;SDS011;13899;51.174;4.456;2023-03-23T03:36:43;3.95;;;3.65;;
25917;SDS011;13899;51.174;4.456;2023-03-23T03:39:11;4.57;;;4.00;;
25917;SDS011;13899;51.174;4.456;2023-03-23T03:41:40;4.97;;;3.78;;
25917;SDS011;13899;51.174;4.456;2023-03-23T03:44:06;6.50;;;4.03;;
25917;SDS011;13899;51.174;4.456;2023-03-23T03:46:33;7.07;;;4.20;;
25917;SDS011;13899;51.174;4.456;2023-03-23T03:49:00;4.18;;;3.80;;
25917;SDS011;13899;51.174;4.456;2023-03-23T03:51:28;4.63;;;3.80;;
25917;SDS011;13899;51.174;4.456;2023-03-23T03:53:55;5.88;;;3.53;;
25917;SDS011;13899;51.174;4.456;2023-03-23T03:56:21;3.47;;;3.00;;
25917;SDS011;13899;51.174;4.456;2023-03-23T03:58:48;5.95;;;3.53;;
25917;SDS011;13899;51.174;4.456;2023-03-23T04:01:15;7.70;;;4.70;;
25917;SDS011;13899;51.174;4.456;2023-03-23T04:03:47;17.20;;;16.35;;
25917;SDS011;13899;51.174;4.456;2023-03-23T04:06:13;4.20;;;3.90;;
25917;SDS011;13899;51.174;4.456;2023-03-23T04:08:40;3.50;;;3.20;;
25917;SDS011;13899;51.174;4.456;2023-03-23T04:11:09;5.68;;;4.90;;
25917;SDS011;13899;51.174;4.456;2023-03-23T04:13:36;4.88;;;4.35;;
25917;SDS011;13899;51.174;4.456;2023-03-23T04:16:02;8.53;;;7.73;;
25917;SDS011;13899;51.174;4.456;2023-03-23T04:18:28;6.60;;;6.05;;
25917;SDS011;13899;51.174;4.456;2023-03-23T04:20:54;6.47;;;5.83;;
25917;SDS011;13899;51.174;4.456;2023-03-23T04:23:24;6.43;;;6.00;;
25917;SDS011;13899;51.174;4.456;2023-03-23T04:25:50;7.18;;;6.78;;
25917;SDS011;13899;51.174;4.456;2023-03-23T04:28:18;7.53;;;6.85;;
25917;SDS011;13899;51.174;4.456;2023-03-23T04:30:48;4.88;;;1.30;;
25917;SDS011;13899;51.174;4.456;2023-03-23T04:33:18;7.90;;;1.88;;
25917;SDS011;13899;51.174;4.456;2023-03-23T04:38:12;5.00;;;1.50;;
25917;SDS011;13899;51.174;4.456;2023-03-23T04:40:40;6.38;;;1.40;;
25917;SDS011;13899;51.174;4.456;2023-03-23T04:43:07;2.70;;;1.38;;
25917;SDS011;13899;51.174;4.456;2023-03-23T04:45:33;3.97;;;1.63;;
25917;SDS011;13899;51.174;4.456;2023-03-23T04:48:03;8.70;;;1.70;;
25917;SDS011;13899;51.174;4.456;2023-03-23T04:50:30;5.55;;;1.48;;
25917;SDS011;13899;51.174;4.456;2023-03-23T04:52:58;6.30;;;1.27;;
25917;SDS011;13899;51.174;4.456;2023-03-23T04:55:28;4.82;;;1.30;;
25917;SDS011;13899;51.174;4.456;2023-03-23T04:58:01;5.82;;;1.33;;
25917;SDS011;13899;51.174;4.456;2023-03-23T05:00:28;3.78;;;1.45;;
25917;SDS011;13899;51.174;4.456;2023-03-23T05:02:54;5.83;;;1.50;;
25917;SDS011;13899;51.174;4.456;2023-03-23T05:05:20;7.45;;;1.50;;
25917;SDS011;13899;51.174;4.456;2023-03-23T05:10:13;6.75;;;1.45;;
25917;SDS011;13899;51.174;4.456;2023-03-23T05:12:40;5.35;;;1.50;;
25917;SDS011;13899;51.174;4.456;2023-03-23T05:15:06;7.40;;;1.40;;
25917;SDS011;13899;51.174;4.456;2023-03-23T05:17:33;6.22;;;1.35;;
25917;SDS011;13899;51.174;4.456;2023-03-23T05:20:00;7.13;;;1.98;;
25917;SDS011;13899;51.174;4.456;2023-03-23T05:22:29;8.23;;;2.42;;
25917;SDS011;13899;51.174;4.456;2023-03-23T05:24:57;4.85;;;1.50;;
25917;SDS011;13899;51.174;4.456;2023-03-23T05:27:23;4.88;;;1.67;;
25917;SDS011;13899;51.174;4.456;2023-03-23T05:29:55;5.32;;;1.73;;
25917;SDS011;13899;51.174;4.456;2023-03-23T05:32:27;7.78;;;1.90;;
25917;SDS011;13899;51.174;4.456;2023-03-23T05:34:56;4.68;;;1.40;;
25917;SDS011;13899;51.174;4.456;2023-03-23T05:37:23;7.35;;;1.90;;
25917;SDS011;13899;51.174;4.456;2023-03-23T05:39:50;7.10;;;2.38;;
25917;SDS011;13899;51.174;4.456;2023-03-23T05:42:19;2.50;;;1.20;;
25917;SDS011;13899;51.174;4.456;2023-03-23T05:44:46;4.38;;;1.30;;
25917;SDS011;13899;51.174;4.456;2023-03-23T05:47:12;2.70;;;1.30;;
25917;SDS011;13899;51.174;4.456;2023-03-23T05:49:38;5.07;;;1.33;;
25917;SDS011;13899;51.174;4.456;2023-03-23T05:52:03;2.53;;;1.50;;
25917;SDS011;13899;51.174;4.456;2023-03-23T05:54:30;3.47;;;1.45;;
25917;SDS011;13899;51.174;4.456;2023-03-23T05:56:56;7.97;;;4.40;;
25917;SDS011;13899;51.174;4.456;2023-03-23T05:59:22;9.73;;;9.07;;
25917;SDS011;13899;51.174;4.456;2023-03-23T06:01:47;11.82;;;10.80;;
25917;SDS011;13899;51.174;4.456;2023-03-23T06:04:13;7.72;;;2.03;;
25917;SDS011;13899;51.174;4.456;2023-03-23T06:06:38;6.72;;;2.45;;
25917;SDS011;13899;51.174;4.456;2023-03-23T06:09:06;7.38;;;2.00;;
25917;SDS011;13899;51.174;4.456;2023-03-23T06:11:32;9.03;;;2.00;;
25917;SDS011;13899;51.174;4.456;2023-03-23T06:13:59;5.30;;;2.00;;
25917;SDS011;13899;51.174;4.456;2023-03-23T06:16:24;6.30;;;2.03;;
25917;SDS011;13899;51.174;4.456;2023-03-23T06:18:50;5.40;;;2.10;;
25917;SDS011;13899;51.174;4.456;2023-03-23T06:21:16;8.50;;;2.25;;
25917;SDS011;13899;51.174;4.456;2023-03-23T06:23:43;8.07;;;6.78;;
25917;SDS011;13899;51.174;4.456;2023-03-23T06:26:10;9.77;;;5.88;;
25917;SDS011;13899;51.174;4.456;2023-03-23T06:28:39;9.10;;;8.30;;
25917;SDS011;13899;51.174;4.456;2023-03-23T06:31:05;7.93;;;5.30;;
25917;SDS011;13899;51.174;4.456;2023-03-23T06:33:35;8.18;;;7.50;;
25917;SDS011;13899;51.174;4.456;2023-03-23T06:36:02;14.50;;;13.50;;
25917;SDS011;13899;51.174;4.456;2023-03-23T06:38:31;9.40;;;2.55;;
25917;SDS011;13899;51.174;4.456;2023-03-23T06:40:57;6.37;;;5.87;;
25917;SDS011;13899;51.174;4.456;2023-03-23T06:43:23;5.05;;;0.90;;
25917;SDS011;13899;51.174;4.456;2023-03-23T06:45:49;11.10;;;10.27;;
25917;SDS011;13899;51.174;4.456;2023-03-23T06:48:15;5.50;;;5.00;;
25917;SDS011;13899;51.174;4.456;2023-03-23T06:50:44;4.88;;;4.38;;
25917;SDS011;13899;51.174;4.456;2023-03-23T06:53:11;6.22;;;5.72;;
25917;SDS011;13899;51.174;4.456;2023-03-23T06:55:37;5.90;;;3.40;;
25917;SDS011;13899;51.174;4.456;2023-03-23T06:58:03;4.32;;;3.05;;
25917;SDS011;13899;51.174;4.456;2023-03-23T07:00:30;4.97;;;3.28;;
25917;SDS011;13899;51.174;4.456;2023-03-23T07:02:56;5.20;;;4.20;;
25917;SDS011;13899;51.174;4.456;2023-03-23T07:05:23;5.80;;;4.90;;
25917;SDS011;13899;51.174;4.456;2023-03-23T07:07:49;7.65;;;7.03;;
25917;SDS011;13899;51.174;4.456;2023-03-23T07:10:14;8.03;;;6.40;;
25917;SDS011;13899;51.174;4.456;2023-03-23T07:12:40;10.40;;;1.60;;
25917;SDS011;13899;51.174;4.456;2023-03-23T07:15:07;6.28;;;0.93;;
25917;SDS011;13899;51.174;4.456;2023-03-23T07:17:35;6.35;;;1.90;;
25917;SDS011;13899;51.174;4.456;2023-03-23T07:20:01;2.20;;;0.80;;
25917;SDS011;13899;51.174;4.456;2023-03-23T07:22:27;4.32;;;0.93;;
25917;SDS011;13899;51.174;4.456;2023-03-23T07:24:53;3.57;;;1.20;;
25917;SDS011;13899;51.174;4.456;2023-03-23T07:27:18;3.80;;;1.30;;
25917;SDS011;13899;51.174;4.456;2023-03-23T07:29:44;3.75;;;1.15;;
25917;SDS011;13899;51.174;4.456;2023-03-23T07:32:10;3.93;;;1.00;;
25917;SDS011;13899;51.174;4.456;2023-03-23T07:34:37;2.20;;;1.00;;
25917;SDS011;13899;51.174;4.456;2023-03-23T07:37:03;3.28;;;0.98;;
25917;SDS011;13899;51.174;4.456;2023-03-23T07:39:29;4.07;;;0.90;;
25917;SDS011;13899;51.174;4.456;2023-03-23T07:41:56;3.88;;;1.10;;
25917;SDS011;13899;51.174;4.456;2023-03-23T07:44:22;2.53;;;1.13;;
25917;SDS011;13899;51.174;4.456;2023-03-23T07:46:48;2.72;;;1.10;;
25917;SDS011;13899;51.174;4.456;2023-03-23T07:49:13;2.50;;;1.00;;
25917;SDS011;13899;51.174;4.456;2023-03-23T07:51:40;2.88;;;0.95;;
25917;SDS011;13899;51.174;4.456;2023-03-23T07:54:06;5.13;;;0.97;;
25917;SDS011;13899;51.174;4.456;2023-03-23T07:56:33;4.43;;;1.02;;
25917;SDS011;13899;51.174;4.456;2023-03-23T07:59:00;3.40;;;0.95;;
25917;SDS011;13899;51.174;4.456;2023-03-23T08:01:27;3.67;;;0.95;;
25917;SDS011;13899;51.174;4.456;2023-03-23T08:03:53;4.20;;;0.93;;
25917;SDS011;13899;51.174;4.456;2023-03-23T08:06:22;3.45;;;0.88;;
25917;SDS011;13899;51.174;4.456;2023-03-23T08:08:48;2.30;;;0.98;;
25917;SDS011;13899;51.174;4.456;2023-03-23T08:13:41;3.88;;;1.02;;
25917;SDS011;13899;51.174;4.456;2023-03-23T08:16:08;2.28;;;0.80;;
25917;SDS011;13899;51.174;4.456;2023-03-23T08:18:34;5.22;;;1.20;;
25917;SDS011;13899;51.174;4.456;2023-03-23T08:21:00;4.05;;;0.90;;
25917;SDS011;13899;51.174;4.456;2023-03-23T08:23:29;2.55;;;0.80;;
25917;SDS011;13899;51.174;4.456;2023-03-23T08:25:55;3.92;;;1.02;;
25917;SDS011;13899;51.174;4.456;2023-03-23T08:28:21;2.00;;;0.70;;
25917;SDS011;13899;51.174;4.456;2023-03-23T08:30:48;3.08;;;0.70;;
25917;SDS011;13899;51.174;4.456;2023-03-23T08:33:14;3.58;;;0.90;;
25917;SDS011;13899;51.174;4.456;2023-03-23T08:35:40;3.53;;;1.02;;
25917;SDS011;13899;51.174;4.456;2023-03-23T08:38:08;2.92;;;0.90;;
25917;SDS011;13899;51.174;4.456;2023-03-23T08:40:35;2.72;;;1.00;;
25917;SDS011;13899;51.174;4.456;2023-03-23T08:43:09;4.10;;;1.00;;
25917;SDS011;13899;51.174;4.456;2023-03-23T08:45:35;3.92;;;1.75;;
25917;SDS011;13899;51.174;4.456;2023-03-23T08:48:02;2.67;;;1.33;;
25917;SDS011;13899;51.174;4.456;2023-03-23T08:50:28;3.85;;;1.27;;
25917;SDS011;13899;51.174;4.456;2023-03-23T08:52:55;4.18;;;1.17;;
25917;SDS011;13899;51.174;4.456;2023-03-23T08:55:21;3.33;;;1.10;;
25917;SDS011;13899;51.174;4.456;2023-03-23T08:57:49;2.30;;;0.90;;
25917;SDS011;13899;51.174;4.456;2023-03-23T09:00:17;4.22;;;1.15;;
25917;SDS011;13899;51.174;4.456;2023-03-23T09:02:48;1.52;;;0.77;;
25917;SDS011;13899;51.174;4.456;2023-03-23T09:05:19;5.32;;;1.00;;
25917;SDS011;13899;51.174;4.456;2023-03-23T09:07:48;2.30;;;0.88;;
25917;SDS011;13899;51.174;4.456;2023-03-23T09:10:16;3.42;;;1.20;;
25917;SDS011;13899;51.174;4.456;2023-03-23T09:12:44;2.55;;;0.88;;
25917;SDS011;13899;51.174;4.456;2023-03-23T09:15:12;5.07;;;1.23;;
25917;SDS011;13899;51.174;4.456;2023-03-23T09:17:41;3.70;;;1.13;;
25917;SDS011;13899;51.174;4.456;2023-03-23T09:20:09;3.80;;;1.33;;
25917;SDS011;13899;51.174;4.456;2023-03-23T09:22:43;5.25;;;1.50;;
25917;SDS011;13899;51.174;4.456;2023-03-23T09:25:13;5.30;;;1.55;;
25917;SDS011;13899;51.174;4.456;2023-03-23T09:27:44;6.38;;;1.42;;
25917;SDS011;13899;51.174;4.456;2023-03-23T09:30:12;4.18;;;1.10;;
25917;SDS011;13899;51.174;4.456;2023-03-23T09:32:40;3.25;;;1.25;;
25917;SDS011;13899;51.174;4.456;2023-03-23T09:35:08;2.35;;;0.95;;
25917;SDS011;13899;51.174;4.456;2023-03-23T09:37:36;8.50;;;3.13;;
25917;SDS011;13899;51.174;4.456;2023-03-23T09:40:04;4.50;;;1.30;;
25917;SDS011;13899;51.174;4.456;2023-03-23T09:42:35;4.05;;;2.08;;
25917;SDS011;13899;51.174;4.456;2023-03-23T09:50:50;5.50;;;1.20;;
25917;SDS011;13899;51.174;4.456;2023-03-23T09:53:24;4.10;;;1.35;;
25917;SDS011;13899;51.174;4.456;2023-03-23T09:55:59;4.97;;;4.13;;
25917;SDS011;13899;51.174;4.456;2023-03-23T09:58:31;5.18;;;4.68;;
25917;SDS011;13899;51.174;4.456;2023-03-23T10:01:10;6.22;;;5.80;;
25917;SDS011;13899;51.174;4.456;2023-03-23T10:03:43;8.23;;;7.72;;
25917;SDS011;13899;51.174;4.456;2023-03-23T10:06:12;5.95;;;5.35;;
25917;SDS011;13899;51.174;4.456;2023-03-23T10:09:01;9.50;;;8.70;;
25917;SDS011;13899;51.174;4.456;2023-03-23T10:16:56;14.73;;;13.73;;
25917;SDS011;13899;51.174;4.456;2023-03-23T10:19:34;8.82;;;8.13;;
25917;SDS011;13899;51.174;4.456;2023-03-23T10:22:11;10.10;;;9.48;;
25917;SDS011;13899;51.174;4.456;2023-03-23T10:24:50;7.97;;;1.27;;
25917;SDS011;13899;51.174;4.456;2023-03-23T10:30:15;4.50;;;1.33;;
25917;SDS011;13899;51.174;4.456;2023-03-23T10:32:56;6.80;;;1.50;;
25917;SDS011;13899;51.174;4.456;2023-03-23T10:35:32;4.00;;;2.53;;
25917;SDS011;13899;51.174;4.456;2023-03-23T10:38:06;4.60;;;3.17;;
25917;SDS011;13899;51.174;4.456;2023-03-23T10:40:44;4.65;;;3.42;;
25917;SDS011;13899;51.174;4.456;2023-03-23T10:43:15;5.53;;;4.28;;
25917;SDS011;13899;51.174;4.456;2023-03-23T10:45:42;2.08;;;1.35;;
25917;SDS011;13899;51.174;4.456;2023-03-23T10:51:06;6.10;;;1.73;;
25917;SDS011;13899;51.174;4.456;2023-03-23T10:53:38;3.55;;;1.70;;
25917;SDS011;13899;51.174;4.456;2023-03-23T10:56:20;2.88;;;1.30;;
25917;SDS011;13899;51.174;4.456;2023-03-23T10:58:50;6.15;;;5.18;;
25917;SDS011;13899;51.174;4.456;2023-03-23T11:01:18;6.10;;;2.05;;
25917;SDS011;13899;51.174;4.456;2023-03-23T11:03:45;14.20;;;13.25;;
25917;SDS011;13899;51.174;4.456;2023-03-23T11:06:22;5.88;;;2.20;;
25917;SDS011;13899;51.174;4.456;2023-03-23T11:11:58;11.93;;;10.82;;
25917;SDS011;13899;51.174;4.456;2023-03-23T11:14:25;16.45;;;15.23;;
25917;SDS011;13899;51.174;4.456;2023-03-23T11:17:03;14.48;;;13.68;;
25917;SDS011;13899;51.174;4.456;2023-03-23T11:24:30;9.30;;;8.73;;
25917;SDS011;13899;51.174;4.456;2023-03-23T11:26:58;9.77;;;8.73;;
25917;SDS011;13899;51.174;4.456;2023-03-23T11:29:26;7.07;;;6.47;;
25917;SDS011;13899;51.174;4.456;2023-03-23T11:32:00;3.42;;;1.58;;
25917;SDS011;13899;51.174;4.456;2023-03-23T11:40:01;11.55;;;10.68;;
25917;SDS011;13899;51.174;4.456;2023-03-23T11:42:43;3.60;;;1.37;;
25917;SDS011;13899;51.174;4.456;2023-03-23T11:48:11;5.60;;;1.83;;
25917;SDS011;13899;51.174;4.456;2023-03-23T11:50:50;8.82;;;7.95;;
25917;SDS011;13899;51.174;4.456;2023-03-23T11:53:40;7.63;;;5.97;;
25917;SDS011;13899;51.174;4.456;2023-03-23T11:56:36;12.45;;;7.65;;
25917;SDS011;13899;51.174;4.456;2023-03-23T11:59:05;9.10;;;8.15;;
25917;SDS011;13899;51.174;4.456;2023-03-23T12:09:56;7.63;;;3.35;;
25917;SDS011;13899;51.174;4.456;2023-03-23T12:12:46;12.27;;;11.38;;
25917;SDS011;13899;51.174;4.456;2023-03-23T12:15:44;17.65;;;16.55;;
25917;SDS011;13899;51.174;4.456;2023-03-23T12:18:23;15.55;;;14.13;;
25917;SDS011;13899;51.174;4.456;2023-03-23T12:26:33;13.32;;;12.43;;
25917;SDS011;13899;51.174;4.456;2023-03-23T12:29:07;12.85;;;11.60;;
25917;SDS011;13899;51.174;4.456;2023-03-23T12:34:35;7.18;;;6.50;;
25917;SDS011;13899;51.174;4.456;2023-03-23T12:37:28;9.52;;;8.18;;
25917;SDS011;13899;51.174;4.456;2023-03-23T12:48:33;9.43;;;8.38;;
25917;SDS011;13899;51.174;4.456;2023-03-23T13:01:48;12.10;;;11.27;;
25917;SDS011;13899;51.174;4.456;2023-03-23T13:04:25;11.80;;;11.10;;
25917;SDS011;13899;51.174;4.456;2023-03-23T13:06:56;9.05;;;8.45;;
25917;SDS011;13899;51.174;4.456;2023-03-23T13:12:15;6.85;;;4.72;;
25917;SDS011;13899;51.174;4.456;2023-03-23T13:26:05;8.68;;;7.82;;
25917;SDS011;13899;51.174;4.456;2023-03-23T13:31:30;12.85;;;3.40;;
25917;SDS011;13899;51.174;4.456;2023-03-23T13:34:05;6.68;;;2.60;;
25917;SDS011;13899;51.174;4.456;2023-03-23T13:36:58;8.32;;;7.72;;
25917;SDS011;13899;51.174;4.456;2023-03-23T13:39:31;9.32;;;8.43;;
25917;SDS011;13899;51.174;4.456;2023-03-23T13:45:07;11.65;;;10.80;;
25917;SDS011;13899;51.174;4.456;2023-03-23T13:48:03;7.35;;;1.80;;
25917;SDS011;13899;51.174;4.456;2023-03-23T13:50:52;12.95;;;12.05;;
25917;SDS011;13899;51.174;4.456;2023-03-23T13:56:04;8.68;;;6.25;;
25917;SDS011;13899;51.174;4.456;2023-03-23T13:58:43;13.35;;;12.48;;
25917;SDS011;13899;51.174;4.456;2023-03-23T14:01:15;7.00;;;1.70;;
25917;SDS011;13899;51.174;4.456;2023-03-23T14:03:43;3.95;;;1.20;;
25917;SDS011;13899;51.174;4.456;2023-03-23T14:06:16;5.80;;;1.50;;
25917;SDS011;13899;51.174;4.456;2023-03-23T14:08:45;5.40;;;1.80;;
25917;SDS011;13899;51.174;4.456;2023-03-23T14:14:03;5.75;;;1.85;;
25917;SDS011;13899;51.174;4.456;2023-03-23T14:16:41;7.63;;;6.93;;
25917;SDS011;13899;51.174;4.456;2023-03-23T14:19:18;6.00;;;1.80;;
25917;SDS011;13899;51.174;4.456;2023-03-23T14:21:57;6.38;;;4.55;;
25917;SDS011;13899;51.174;4.456;2023-03-23T14:26:51;11.20;;;4.70;;
25917;SDS011;13899;51.174;4.456;2023-03-23T14:29:19;8.90;;;2.53;;
25917;SDS011;13899;51.174;4.456;2023-03-23T14:31:52;10.48;;;2.13;;
25917;SDS011;13899;51.174;4.456;2023-03-23T14:34:23;6.40;;;2.13;;
25917;SDS011;13899;51.174;4.456;2023-03-23T14:36:54;4.00;;;1.50;;
25917;SDS011;13899;51.174;4.456;2023-03-23T14:41:51;5.22;;;1.30;;
25917;SDS011;13899;51.174;4.456;2023-03-23T14:44:28;6.28;;;5.65;;
25917;SDS011;13899;51.174;4.456;2023-03-23T14:46:58;4.03;;;1.27;;
25917;SDS011;13899;51.174;4.456;2023-03-23T14:49:30;13.82;;;12.82;;
25917;SDS011;13899;51.174;4.456;2023-03-23T14:52:02;12.98;;;12.20;;
25917;SDS011;13899;51.174;4.456;2023-03-23T14:54:38;16.17;;;15.15;;
25917;SDS011;13899;51.174;4.456;2023-03-23T14:57:13;15.65;;;14.55;;
25917;SDS011;13899;51.174;4.456;2023-03-23T14:59:40;5.80;;;2.38;;
25917;SDS011;13899;51.174;4.456;2023-03-23T15:02:32;6.65;;;1.75;;
25917;SDS011;13899;51.174;4.456;2023-03-23T15:05:02;6.72;;;2.30;;
25917;SDS011;13899;51.174;4.456;2023-03-23T15:08:02;5.78;;;1.75;;
25917;SDS011;13899;51.174;4.456;2023-03-23T15:10:31;7.80;;;2.25;;
25917;SDS011;13899;51.174;4.456;2023-03-23T15:12:57;8.88;;;1.98;;
25917;SDS011;13899;51.174;4.456;2023-03-23T15:15:30;8.30;;;1.93;;
25917;SDS011;13899;51.174;4.456;2023-03-23T15:17:57;5.50;;;2.20;;
25917;SDS011;13899;51.174;4.456;2023-03-23T15:20:32;7.10;;;2.30;;
25917;SDS011;13899;51.174;4.456;2023-03-23T15:23:16;9.18;;;3.20;;
25917;SDS011;13899;51.174;4.456;2023-03-23T15:25:47;7.80;;;2.03;;
25917;SDS011;13899;51.174;4.456;2023-03-23T15:28:17;6.15;;;1.90;;
25917;SDS011;13899;51.174;4.456;2023-03-23T15:30:50;9.90;;;2.67;;
25917;SDS011;13899;51.174;4.456;2023-03-23T15:33:18;7.00;;;3.88;;
25917;SDS011;13899;51.174;4.456;2023-03-23T15:35:51;4.10;;;2.47;;
25917;SDS011;13899;51.174;4.456;2023-03-23T15:38:22;6.25;;;1.35;;
25917;SDS011;13899;51.174;4.456;2023-03-23T15:40:55;6.32;;;1.80;;
25917;SDS011;13899;51.174;4.456;2023-03-23T15:43:26;7.60;;;2.30;;
25917;SDS011;13899;51.174;4.456;2023-03-23T15:45:54;11.50;;;2.67;;
25917;SDS011;13899;51.174;4.456;2023-03-23T15:48:21;5.38;;;2.00;;
25917;SDS011;13899;51.174;4.456;2023-03-23T15:50:47;10.20;;;3.00;;
25917;SDS011;13899;51.174;4.456;2023-03-23T15:53:28;6.80;;;2.60;;
25917;SDS011;13899;51.174;4.456;2023-03-23T15:55:57;7.88;;;3.38;;
25917;SDS011;13899;51.174;4.456;2023-03-23T15:58:25;8.18;;;7.43;;
25917;SDS011;13899;51.174;4.456;2023-03-23T16:00:53;9.75;;;9.05;;
25917;SDS011;13899;51.174;4.456;2023-03-23T16:03:33;12.13;;;8.75;;
25917;SDS011;13899;51.174;4.456;2023-03-23T16:06:02;10.15;;;9.35;;
25917;SDS011;13899;51.174;4.456;2023-03-23T16:08:28;9.30;;;8.50;;
25917;SDS011;13899;51.174;4.456;2023-03-23T16:11:06;9.25;;;7.35;;
25917;SDS011;13899;51.174;4.456;2023-03-23T16:13:40;8.68;;;7.80;;
25917;SDS011;13899;51.174;4.456;2023-03-23T16:16:09;7.27;;;6.67;;
25917;SDS011;13899;51.174;4.456;2023-03-23T16:18:58;7.93;;;6.80;;
25917;SDS011;13899;51.174;4.456;2023-03-23T16:21:23;11.50;;;7.40;;
25917;SDS011;13899;51.174;4.456;2023-03-23T16:23:50;11.60;;;7.70;;
25917;SDS011;13899;51.174;4.456;2023-03-23T16:26:16;8.27;;;2.67;;
25917;SDS011;13899;51.174;4.456;2023-03-23T16:28:43;10.13;;;6.78;;
25917;SDS011;13899;51.174;4.456;2023-03-23T16:31:16;13.63;;;7.07;;
25917;SDS011;13899;51.174;4.456;2023-03-23T16:33:45;8.57;;;7.68;;
25917;SDS011;13899;51.174;4.456;2023-03-23T16:36:11;7.67;;;3.23;;
25917;SDS011;13899;51.174;4.456;2023-03-23T16:38:38;8.73;;;3.35;;
25917;SDS011;13899;51.174;4.456;2023-03-23T16:41:04;9.95;;;7.88;;
25917;SDS011;13899;51.174;4.456;2023-03-23T16:43:31;11.77;;;9.00;;
25917;SDS011;13899;51.174;4.456;2023-03-23T16:45:59;15.07;;;10.13;;
25917;SDS011;13899;51.174;4.456;2023-03-23T16:48:25;9.63;;;2.43;;
25917;SDS011;13899;51.174;4.456;2023-03-23T16:50:51;9.87;;;3.27;;
25917;SDS011;13899;51.174;4.456;2023-03-23T16:53:18;14.63;;;13.15;;
25917;SDS011;13899;51.174;4.456;2023-03-23T16:55:44;11.60;;;7.70;;
25917;SDS011;13899;51.174;4.456;2023-03-23T16:58:14;7.93;;;7.13;;
25917;SDS011;13899;51.174;4.456;2023-03-23T17:00:40;8.65;;;3.35;;
25917;SDS011;13899;51.174;4.456;2023-03-23T17:03:08;6.63;;;3.15;;
25917;SDS011;13899;51.174;4.456;2023-03-23T17:05:34;12.23;;;7.60;;
25917;SDS011;13899;51.174;4.456;2023-03-23T17:08:01;19.80;;;18.23;;
25917;SDS011;13899;51.174;4.456;2023-03-23T17:10:30;6.43;;;1.95;;
25917;SDS011;13899;51.174;4.456;2023-03-23T17:12:56;5.47;;;1.90;;
25917;SDS011;13899;51.174;4.456;2023-03-23T17:15:22;7.93;;;1.98;;
25917;SDS011;13899;51.174;4.456;2023-03-23T17:17:50;5.63;;;1.60;;